Caribou, Maine
Current Conditions -  °F | °C
As of 10:54 PM on Friday 24 Oct 2014 (Local Time) from KCAR Reporting Station
Light Rain Light Rain  
Wind Chill: 35°   Ceiling: 2800
Heat Index: 41°   Visibility: 7mi
Dew Point: 39°   Wind: 10mph
Humidity: 93%   Direction: 350°N
Pressure: 29.66"   Gusts: NA
Location:  46.86°N, 68.01°W
Report Text: KCAR 250254Z AUTO 35009KT 7SM -RA SCT014 OVC028 05/04 A2966 RMK AO2 SLP051 P0001 60007 T00500039 58008 $
Loading
Personal Weather Stations






























Interactive Weather Map New forecast layout! Learn more

10-Day Weather Forecast

Advertisements
Track Severe Weather on mobile